createdAt,value
2022-09-03T00:01:38.947Z,33.11
2022-09-03T00:04:12.355Z,32.98
2022-09-03T00:06:44.086Z,32.61
2022-09-03T00:09:16.945Z,32.66
2022-09-03T00:11:53.801Z,32.23
2022-09-03T00:14:26.501Z,33.29
2022-09-03T00:16:58.747Z,32.73
2022-09-03T00:19:29.878Z,32.50
2022-09-03T00:22:01.618Z,32.71
2022-09-03T00:24:32.065Z,32.73
2022-09-03T00:27:04.294Z,32.57
2022-09-03T00:29:37.564Z,31.96
2022-09-03T00:32:11.926Z,31.51
2022-09-03T00:34:44.633Z,30.91
2022-09-03T00:37:15.380Z,32.33
2022-09-03T00:39:44.399Z,31.66
2022-09-03T00:42:33.168Z,33.68
2022-09-03T00:45:16.179Z,35.72
2022-09-03T00:47:57.991Z,34.41
2022-09-03T00:50:34.993Z,33.01
2022-09-03T00:53:11.015Z,32.61
2022-09-03T00:55:49.535Z,32.22
2022-09-03T00:58:43.832Z,32.52
2022-09-03T01:01:24.111Z,32.46
2022-09-03T01:04:07.608Z,33.09
2022-09-03T01:06:45.305Z,34.34
2022-09-03T01:09:32.014Z,34.08
2022-09-03T01:12:13.504Z,33.79
2022-09-03T01:14:57.569Z,33.70
2022-09-03T01:17:37.983Z,33.80
2022-09-03T01:20:20.149Z,34.63
2022-09-03T01:23:14.204Z,33.71
2022-09-03T01:25:53.397Z,34.29
2022-09-03T01:28:34.914Z,34.04
2022-09-03T01:31:12.052Z,33.52
2022-09-03T01:33:43.855Z,34.03
2022-09-03T01:36:20.657Z,32.61
2022-09-03T01:38:56.362Z,33.56
2022-09-03T01:41:54.019Z,32.22
2022-09-03T01:44:32.692Z,32.31
2022-09-03T01:47:09.920Z,33.48
2022-09-03T01:49:46.188Z,32.08
2022-09-03T01:52:18.930Z,32.36
2022-09-03T01:55:01.610Z,31.97
2022-09-03T01:57:48.282Z,31.56
2022-09-03T02:00:20.371Z,32.20
2022-09-03T02:02:51.433Z,32.41
2022-09-03T02:05:24.092Z,31.46
2022-09-03T02:07:57.799Z,31.38
2022-09-03T02:10:30.315Z,31.10
2022-09-03T02:13:01.530Z,31.56
2022-09-03T02:15:32.608Z,32.45
2022-09-03T02:18:04.722Z,32.68
2022-09-03T02:20:33.522Z,32.87
2022-09-03T02:23:01.440Z,31.54
2022-09-03T02:25:36.617Z,31.44
2022-09-03T02:28:11.218Z,32.56
2022-09-03T02:30:47.965Z,32.86
2022-09-03T02:33:16.428Z,32.83
2022-09-03T02:35:45.430Z,33.03
2022-09-03T02:38:14.889Z,33.01
2022-09-03T02:40:42.643Z,33.96
2022-09-03T02:43:18.481Z,32.64
2022-09-03T02:45:51.874Z,32.97
2022-09-03T02:48:24.022Z,33.58
2022-09-03T02:50:51.813Z,33.56
2022-09-03T02:53:19.963Z,34.28
2022-09-03T02:55:48.005Z,35.46
2022-09-03T02:58:15.793Z,34.77
2022-09-03T03:00:43.688Z,35.41
2022-09-03T03:03:12.752Z,35.25
2022-09-03T03:05:45.178Z,34.30
2022-09-03T03:08:15.271Z,34.49
2022-09-03T03:10:44.004Z,34.43
2022-09-03T03:13:12.058Z,33.89
2022-09-03T03:15:39.763Z,34.28
2022-09-03T03:18:07.915Z,35.38
2022-09-03T03:20:36.962Z,35.11
2022-09-03T03:23:05.591Z,35.12
2022-09-03T03:25:33.530Z,34.70
2022-09-03T03:28:01.314Z,35.32
2022-09-03T03:30:29.231Z,35.87
2022-09-03T03:32:58.290Z,36.05
2022-09-03T03:35:26.229Z,36.83
2022-09-03T03:37:55.590Z,36.01
2022-09-03T03:40:23.350Z,35.16
2022-09-03T03:42:51.106Z,35.64
2022-09-03T03:45:19.027Z,36.75
2022-09-03T03:47:46.865Z,36.30
2022-09-03T03:50:17.160Z,36.98
2022-09-03T03:52:45.717Z,37.37
2022-09-03T03:55:15.951Z,37.37
2022-09-03T03:57:43.929Z,37.08
2022-09-03T04:00:15.015Z,37.51
2022-09-03T04:02:42.994Z,37.14
2022-09-03T04:05:11.481Z,37.46
2022-09-03T04:07:39.610Z,37.81
2022-09-03T04:10:10.140Z,37.61
2022-09-03T04:12:39.259Z,38.61
2022-09-03T04:15:07.809Z,37.73
2022-09-03T04:17:35.550Z,38.30
2022-09-03T04:20:04.334Z,38.19
2022-09-03T04:22:32.198Z,37.59
2022-09-03T04:24:59.969Z,37.83
2022-09-03T04:27:27.724Z,38.30
2022-09-03T04:29:56.849Z,38.06
2022-09-03T04:32:41.912Z,39.05
2022-09-03T04:35:10.296Z,38.01
2022-09-03T04:37:38.047Z,38.53
2022-09-03T04:40:06.857Z,38.19
2022-09-03T04:42:34.708Z,38.47
2022-09-03T04:45:04.060Z,37.58
2022-09-03T04:47:32.009Z,37.38
2022-09-03T04:50:00.752Z,37.56
2022-09-03T04:52:31.434Z,37.85
2022-09-03T04:54:59.301Z,37.98
2022-09-03T04:57:34.303Z,37.57
2022-09-03T05:00:03.948Z,37.24
2022-09-03T05:02:31.772Z,37.03
2022-09-03T05:04:59.559Z,37.09
2022-09-03T05:07:28.405Z,37.46
2022-09-03T05:09:56.902Z,36.96
2022-09-03T05:12:27.046Z,36.67
2022-09-03T05:14:54.763Z,37.11
2022-09-03T05:17:23.941Z,37.13
2022-09-03T05:19:53.748Z,37.68
2022-09-03T05:22:21.640Z,37.21
2022-09-03T05:24:49.733Z,38.40
2022-09-03T05:27:18.275Z,38.26
2022-09-03T05:29:46.521Z,38.21
2022-09-03T05:32:16.370Z,38.76
2022-09-03T05:34:45.543Z,38.71
2022-09-03T05:37:13.623Z,37.58
2022-09-03T05:39:41.664Z,37.62
2022-09-03T05:42:09.466Z,37.44
2022-09-03T05:44:39.010Z,37.40
2022-09-03T05:47:07.021Z,37.26
2022-09-03T05:49:34.808Z,37.11
2022-09-03T05:52:04.275Z,37.29
2022-09-03T05:54:32.053Z,37.68
2022-09-03T05:56:59.826Z,37.92
2022-09-03T05:59:27.600Z,39.49
2022-09-03T06:01:59.477Z,38.27
2022-09-03T06:04:28.473Z,39.20
2022-09-03T06:06:57.117Z,39.12
2022-09-03T06:09:26.370Z,38.03
2022-09-03T06:11:57.324Z,38.94
2022-09-03T06:14:26.737Z,38.54
2022-09-03T06:16:55.774Z,39.40
2022-09-03T06:19:23.718Z,38.75
2022-09-03T06:21:51.619Z,39.04
2022-09-03T06:24:23.199Z,39.54
2022-09-03T06:26:56.012Z,39.30
2022-09-03T06:29:23.815Z,40.95
2022-09-03T06:31:52.340Z,39.78
2022-09-03T06:34:22.508Z,39.87
2022-09-03T06:36:52.776Z,39.86
2022-09-03T06:39:22.582Z,37.94
2022-09-03T06:41:51.750Z,37.57
2022-09-03T06:44:27.619Z,38.14
2022-09-03T06:46:55.355Z,36.43
2022-09-03T06:49:26.253Z,36.15
2022-09-03T06:51:55.272Z,35.37
2022-09-03T06:54:25.238Z,34.87
2022-09-03T06:56:52.967Z,34.40
2022-09-03T06:59:20.905Z,36.22
2022-09-03T07:01:50.137Z,34.90
2022-09-03T07:04:20.070Z,36.56
2022-09-03T07:06:48.484Z,35.47
2022-09-03T07:09:18.219Z,34.94
2022-09-03T07:11:49.303Z,34.68
2022-09-03T07:14:18.921Z,36.62
2022-09-03T07:16:48.014Z,35.10
2022-09-03T07:19:17.593Z,35.91
2022-09-03T07:21:49.546Z,36.21
2022-09-03T07:24:19.418Z,36.13
2022-09-03T07:26:48.713Z,36.42
2022-09-03T07:29:19.976Z,36.35
2022-09-03T07:31:48.621Z,36.31
2022-09-03T07:34:18.044Z,36.19
2022-09-03T07:36:51.815Z,38.12
2022-09-03T07:39:20.887Z,38.90
2022-09-03T07:41:50.128Z,37.40
2022-09-03T07:44:20.381Z,36.16
2022-09-03T07:46:50.900Z,36.63
2022-09-03T07:49:22.011Z,36.01
2022-09-03T07:51:53.973Z,34.58
2022-09-03T07:54:23.782Z,36.30
2022-09-03T07:56:51.602Z,34.39
2022-09-03T07:59:20.417Z,34.65
2022-09-03T08:01:48.265Z,33.93
2022-09-03T08:04:16.148Z,32.92
2022-09-03T08:06:45.454Z,32.44
2022-09-03T08:09:14.631Z,33.14
2022-09-03T08:11:44.367Z,34.00
2022-09-03T08:14:14.302Z,33.95
2022-09-03T08:16:44.320Z,34.05
2022-09-03T08:19:13.124Z,33.86
2022-09-03T08:21:42.653Z,36.27
2022-09-03T08:24:12.958Z,36.02
2022-09-03T08:26:47.590Z,33.44
2022-09-03T08:29:19.729Z,34.39
2022-09-03T08:31:47.561Z,32.90
2022-09-03T08:34:17.451Z,33.69
2022-09-03T08:36:46.542Z,36.45
2022-09-03T08:39:15.777Z,36.98
2022-09-03T08:42:19.895Z,39.01
2022-09-03T08:44:51.466Z,36.18
2022-09-03T08:47:26.762Z,38.54
2022-09-03T08:49:59.225Z,37.27
2022-09-03T08:52:32.391Z,36.56
2022-09-03T08:55:17.309Z,35.74
2022-09-03T08:57:49.002Z,35.01
2022-09-03T09:00:17.825Z,34.73
2022-09-03T09:02:58.085Z,34.26
2022-09-03T09:05:37.771Z,34.51
2022-09-03T09:08:16.142Z,33.23
2022-09-03T09:10:48.718Z,37.26
2022-09-03T09:13:24.442Z,38.13
2022-09-03T09:16:04.205Z,39.63
2022-09-03T09:18:46.780Z,39.52
2022-09-03T09:21:22.019Z,37.29
2022-09-03T09:23:54.104Z,34.86
2022-09-03T09:26:23.537Z,34.48
2022-09-03T09:28:55.753Z,32.93
2022-09-03T09:31:26.267Z,34.16
2022-09-03T09:33:54.864Z,33.58
2022-09-03T09:36:23.705Z,32.82
2022-09-03T09:38:53.258Z,36.17
2022-09-03T09:41:27.534Z,37.39
2022-09-03T09:44:02.962Z,34.60
2022-09-03T09:46:36.403Z,35.96
2022-09-03T09:49:23.455Z,39.08
2022-09-03T09:52:02.702Z,36.91
2022-09-03T09:54:30.779Z,39.53
2022-09-03T09:57:06.289Z,37.14
2022-09-03T09:59:34.972Z,34.64
2022-09-03T10:02:11.476Z,32.24
2022-09-03T10:04:45.670Z,33.55
2022-09-03T10:07:25.083Z,33.05
2022-09-03T10:10:01.257Z,32.53
2022-09-03T10:12:35.793Z,37.12
2022-09-03T10:15:19.368Z,32.06
2022-09-03T10:17:58.594Z,29.66
2022-09-03T10:20:37.298Z,26.85
2022-09-03T10:23:12.536Z,29.70
2022-09-03T10:25:53.452Z,28.09
2022-09-03T10:28:26.809Z,26.56
2022-09-03T10:31:06.389Z,25.21
2022-09-03T10:33:40.060Z,23.96
2022-09-03T10:36:12.470Z,27.65
2022-09-03T10:38:43.877Z,30.71
2022-09-03T10:41:30.043Z,29.01
2022-09-03T10:44:22.879Z,27.47
2022-09-03T10:47:04.459Z,24.11
2022-09-03T10:49:48.978Z,23.79
2022-09-03T10:52:26.710Z,23.83
2022-09-03T10:55:05.748Z,21.67
2022-09-03T10:57:46.662Z,21.12
2022-09-03T11:00:18.225Z,20.77
2022-09-03T11:03:21.175Z,22.62
2022-09-03T11:05:59.807Z,23.04
2022-09-03T11:08:34.331Z,24.83
2022-09-03T11:11:11.654Z,24.02
2022-09-03T11:13:43.294Z,27.18
2022-09-03T11:16:19.936Z,26.35
2022-09-03T11:18:51.219Z,26.13
2022-09-03T11:21:23.209Z,25.39
2022-09-03T11:23:55.462Z,26.88
2022-09-03T11:26:26.350Z,27.89
2022-09-03T11:29:00.780Z,25.71
2022-09-03T11:31:47.804Z,26.57
2022-09-03T11:34:22.184Z,29.12
2022-09-03T11:36:51.648Z,30.51
2022-09-03T11:39:22.078Z,29.05
2022-09-03T11:42:04.515Z,29.56
2022-09-03T11:44:47.657Z,29.98
2022-09-03T11:47:25.652Z,29.16
2022-09-03T11:49:55.461Z,28.56
2022-09-03T11:52:32.650Z,29.26
2022-09-03T11:55:00.411Z,29.29
2022-09-03T11:57:30.685Z,32.95
2022-09-03T12:00:11.895Z,31.38
2022-09-03T12:02:46.596Z,32.91
2022-09-03T12:05:27.605Z,33.37
2022-09-03T12:08:09.884Z,32.53
2022-09-03T12:10:51.539Z,32.09
2022-09-03T12:13:34.358Z,31.60
2022-09-03T12:16:31.373Z,31.86
2022-09-03T12:19:10.218Z,33.54
2022-09-03T12:21:41.521Z,31.63
2022-09-03T12:24:13.315Z,33.56
2022-09-03T12:26:42.887Z,32.36
2022-09-03T12:29:27.873Z,32.73
2022-09-03T12:31:57.301Z,34.52
2022-09-03T12:34:28.155Z,34.37
2022-09-03T12:36:56.413Z,34.37
2022-09-03T12:42:21.700Z,36.71
2022-09-03T12:44:51.843Z,37.73
2022-09-03T12:47:38.016Z,38.42
2022-09-03T12:50:11.557Z,41.93
2022-09-03T12:52:43.416Z,44.85
2022-09-03T12:55:27.675Z,49.21
2022-09-03T12:58:02.992Z,54.37
2022-09-03T13:00:33.399Z,58.19
2022-09-03T13:03:07.896Z,62.26
2022-09-03T13:05:44.514Z,64.97
2022-09-03T13:08:17.336Z,66.88
2022-09-03T13:10:45.926Z,68.04
2022-09-03T13:13:22.670Z,68.77
2022-09-03T13:16:16.147Z,66.67
2022-09-03T13:18:54.103Z,65.82
2022-09-03T13:21:35.438Z,64.55
2022-09-03T13:24:25.939Z,64.61
2022-09-03T13:27:08.369Z,62.93
2022-09-03T13:29:46.987Z,63.03
2022-09-03T13:32:27.542Z,60.63
2022-09-03T13:35:02.892Z,59.42
2022-09-03T13:37:38.700Z,57.88
2022-09-03T13:40:16.086Z,59.98
2022-09-03T13:42:53.511Z,59.50
2022-09-03T13:45:32.324Z,62.26
2022-09-03T13:48:31.968Z,59.97
2022-09-03T13:51:05.913Z,57.88
2022-09-03T13:53:50.425Z,57.33
2022-09-03T13:56:22.200Z,58.56
2022-09-03T13:58:57.228Z,57.27
2022-09-03T14:01:37.051Z,55.69
2022-09-03T14:04:05.370Z,54.83
2022-09-03T14:06:42.862Z,55.97
2022-09-03T14:09:21.809Z,56.32
2022-09-03T14:11:56.949Z,53.65
2022-09-03T14:14:42.198Z,56.46
2022-09-03T14:17:16.222Z,54.28
2022-09-03T14:19:47.660Z,54.99
2022-09-03T14:22:20.151Z,52.29
2022-09-03T14:24:54.876Z,50.16
2022-09-03T14:27:27.551Z,50.79
2022-09-03T14:30:00.769Z,50.99
2022-09-03T14:32:35.684Z,50.23
2022-09-03T14:35:24.615Z,48.69
2022-09-03T14:38:12.846Z,49.63
2022-09-03T14:40:46.419Z,54.06
2022-09-03T14:43:29.217Z,52.69
2022-09-03T14:46:10.607Z,50.97
2022-09-03T14:49:08.124Z,50.65
2022-09-03T14:51:55.881Z,55.13
2022-09-03T14:54:52.617Z,56.11
2022-09-03T14:57:47.340Z,59.72
2022-09-03T15:00:19.640Z,62.75
2022-09-03T15:03:56.792Z,66.59
2022-09-03T15:06:40.074Z,72.18
2022-09-03T15:09:22.379Z,68.99
2022-09-03T15:11:55.472Z,69.44
2022-09-03T15:14:30.797Z,68.20
2022-09-03T15:17:02.026Z,66.97
2022-09-03T15:19:52.463Z,65.81
2022-09-03T15:22:35.672Z,65.87
2022-09-03T15:25:16.047Z,64.74
2022-09-03T15:27:56.625Z,64.50
2022-09-03T15:30:24.632Z,61.74
2022-09-03T15:33:11.245Z,58.67
2022-09-03T15:35:59.632Z,58.54
2022-09-03T15:38:41.262Z,58.93
2022-09-03T15:41:18.978Z,54.84
2022-09-03T15:43:50.839Z,55.70
2022-09-03T15:46:38.446Z,53.97
2022-09-03T15:49:18.331Z,54.76
2022-09-03T15:52:01.410Z,53.86
2022-09-03T15:54:43.047Z,54.13
2022-09-03T15:57:14.341Z,54.10
2022-09-03T15:59:48.549Z,52.82
2022-09-03T16:02:21.884Z,52.45
2022-09-03T16:05:09.101Z,51.15
2022-09-03T16:07:55.333Z,48.90
2022-09-03T16:10:38.632Z,51.29
2022-09-03T16:13:21.862Z,48.97
2022-09-03T16:15:58.944Z,51.20
2022-09-03T16:18:33.669Z,53.09
2022-09-03T16:21:06.503Z,53.26
2022-09-03T16:23:42.289Z,54.04
2022-09-03T16:26:16.672Z,54.98
2022-09-03T16:28:51.627Z,54.32
2022-09-03T16:31:29.789Z,53.91
2022-09-03T16:34:03.432Z,56.23
2022-09-03T16:36:42.159Z,55.66
2022-09-03T16:39:20.466Z,53.59
2022-09-03T16:41:54.053Z,51.70
2022-09-03T16:44:29.380Z,50.76
2022-09-03T16:47:05.285Z,52.25
2022-09-03T16:49:48.184Z,51.11
2022-09-03T16:52:38.124Z,51.72
2022-09-03T16:55:18.998Z,51.68
2022-09-03T16:58:01.282Z,51.54
2022-09-03T17:00:44.560Z,51.94
2022-09-03T17:03:30.076Z,49.22
2022-09-03T17:06:17.899Z,49.34
2022-09-03T17:08:58.397Z,55.20
2022-09-03T17:11:58.328Z,50.84
2022-09-03T17:14:47.626Z,51.11
2022-09-03T17:17:27.977Z,49.80
2022-09-03T17:20:07.279Z,48.61
2022-09-03T17:22:46.469Z,48.55
2022-09-03T17:25:29.903Z,48.47
2022-09-03T17:28:10.835Z,47.17
2022-09-03T17:30:50.331Z,47.58
2022-09-03T17:33:45.541Z,48.54
2022-09-03T17:36:17.435Z,52.59
2022-09-03T17:39:25.773Z,49.50
2022-09-03T17:41:56.054Z,52.69
2022-09-03T17:44:38.688Z,48.87
2022-09-03T17:47:27.737Z,50.44
2022-09-03T17:50:01.447Z,48.10
2022-09-03T17:52:36.840Z,47.74
2022-09-03T17:55:16.490Z,49.91
2022-09-03T17:57:48.200Z,52.03
2022-09-03T18:00:26.817Z,53.64
2022-09-03T18:03:01.642Z,53.80
2022-09-03T18:05:33.765Z,51.93
2022-09-03T18:08:06.365Z,51.66
2022-09-03T18:10:45.524Z,51.70
2022-09-03T18:13:23.492Z,50.63
2022-09-03T18:15:59.752Z,54.73
2022-09-03T18:18:31.316Z,57.84
2022-09-03T18:21:31.318Z,56.15
2022-09-03T18:24:23.084Z,56.28
2022-09-03T18:27:15.302Z,55.09
2022-09-03T18:30:06.141Z,53.83
2022-09-03T18:32:51.827Z,55.22
2022-09-03T18:35:38.606Z,57.44
2022-09-03T18:38:24.556Z,54.92
2022-09-03T18:41:25.016Z,53.41
2022-09-03T18:44:17.221Z,55.64
2022-09-03T18:48:01.923Z,52.50
2022-09-03T18:50:31.957Z,52.16
2022-09-03T18:53:29.013Z,50.97
2022-09-03T18:56:26.864Z,49.57
2022-09-03T18:59:25.249Z,54.08
2022-09-03T19:02:12.362Z,52.11
2022-09-03T19:05:11.914Z,50.46
2022-09-03T19:08:05.867Z,50.97
2022-09-03T19:11:01.546Z,50.09
2022-09-03T19:13:52.046Z,49.09
2022-09-03T19:16:46.654Z,51.27
2022-09-03T19:20:09.034Z,51.24
2022-09-03T19:22:58.355Z,49.04
2022-09-03T19:25:47.443Z,48.94
2022-09-03T19:28:37.420Z,47.97
2022-09-03T19:31:52.402Z,48.24
2022-09-03T19:34:51.538Z,48.15
2022-09-03T19:37:41.682Z,47.97
2022-09-03T19:40:53.500Z,49.13
2022-09-03T19:43:51.677Z,50.79
2022-09-03T19:46:47.972Z,50.83
2022-09-03T19:49:39.696Z,49.60
2022-09-03T19:52:32.305Z,48.31
2022-09-03T19:55:19.095Z,47.87
2022-09-03T19:58:26.194Z,47.87
2022-09-03T20:01:18.168Z,47.60
2022-09-03T20:04:03.652Z,47.58
2022-09-03T20:06:53.200Z,48.50
2022-09-03T20:09:42.961Z,50.41
2022-09-03T20:12:11.441Z,49.91
2022-09-03T20:14:39.222Z,50.31
2022-09-03T20:17:20.807Z,49.02
2022-09-03T20:20:09.843Z,48.52
2022-09-03T20:22:44.835Z,48.94
2022-09-03T20:25:40.951Z,49.58
2022-09-03T20:28:19.353Z,49.21
2022-09-03T20:30:51.525Z,53.03
2022-09-03T20:33:31.369Z,53.31
2022-09-03T20:36:10.930Z,53.45
2022-09-03T20:38:59.239Z,52.02
2022-09-03T20:41:37.973Z,53.13
2022-09-03T20:44:21.902Z,54.29
2022-09-03T20:47:02.417Z,53.60
2022-09-03T20:49:41.930Z,52.57
2022-09-03T20:52:15.438Z,52.27
2022-09-03T20:54:50.407Z,53.59
2022-09-03T20:57:29.279Z,53.68
2022-09-03T21:00:05.639Z,54.25
2022-09-03T21:02:59.991Z,55.73
2022-09-03T21:05:33.814Z,55.08
2022-09-03T21:08:14.809Z,54.83
2022-09-03T21:10:52.002Z,55.92
2022-09-03T21:13:33.151Z,54.50
2022-09-03T21:16:20.960Z,54.24
2022-09-03T21:18:58.141Z,54.74
2022-09-03T21:21:39.668Z,53.92
2022-09-03T21:24:13.209Z,53.87
2022-09-03T21:26:46.012Z,54.32
2022-09-03T21:29:22.687Z,54.07
2022-09-03T21:31:54.914Z,53.08
2022-09-03T21:34:30.097Z,51.99
2022-09-03T21:37:01.987Z,51.56
2022-09-03T21:39:33.589Z,51.56
2022-09-03T21:42:08.208Z,53.96
2022-09-03T21:44:48.264Z,54.53
2022-09-03T21:47:18.480Z,53.94
2022-09-03T21:49:56.257Z,52.40
2022-09-03T21:52:35.417Z,51.78
2022-09-03T21:55:04.739Z,51.67
2022-09-03T21:57:39.707Z,55.47
2022-09-03T22:00:18.512Z,60.36
2022-09-03T22:02:47.183Z,59.23
2022-09-03T22:05:16.311Z,57.57
2022-09-03T22:08:02.443Z,60.38
2022-09-03T22:10:35.852Z,64.65
2022-09-03T22:13:15.627Z,63.51
2022-09-03T22:15:48.105Z,65.73
2022-09-03T22:18:28.823Z,67.61
2022-09-03T22:21:03.074Z,71.33
2022-09-03T22:23:43.660Z,69.10
2022-09-03T22:26:23.924Z,64.53
2022-09-03T22:29:03.498Z,60.54
2022-09-03T22:31:50.002Z,59.10
2022-09-03T22:34:53.421Z,58.44
2022-09-03T22:37:31.864Z,59.98
2022-09-03T22:40:14.905Z,59.12
2022-09-03T22:43:07.060Z,55.87
2022-09-03T22:45:49.104Z,55.02
2022-09-03T22:48:31.860Z,54.00
2022-09-03T22:51:03.946Z,55.47
2022-09-03T22:54:00.136Z,53.56
2022-09-03T22:56:34.180Z,53.27
2022-09-03T22:59:07.131Z,51.64
2022-09-03T23:01:40.228Z,52.36
2022-09-03T23:04:14.420Z,52.36
2022-09-03T23:06:51.137Z,51.80
2022-09-03T23:09:28.788Z,51.26
2022-09-03T23:12:00.910Z,51.32
2022-09-03T23:14:34.666Z,51.46
2022-09-03T23:17:08.933Z,52.45
2022-09-03T23:19:41.529Z,52.90
2022-09-03T23:22:13.422Z,52.35
2022-09-03T23:24:44.690Z,51.96
2022-09-03T23:27:18.895Z,52.27
2022-09-03T23:29:48.291Z,53.25
2022-09-03T23:32:16.160Z,52.59
2022-09-03T23:34:44.034Z,52.89
2022-09-03T23:37:34.852Z,61.13
2022-09-03T23:40:34.496Z,66.02
2022-09-03T23:43:39.253Z,63.24
2022-09-03T23:46:13.427Z,62.30
2022-09-03T23:48:57.985Z,59.51
2022-09-03T23:51:32.720Z,57.35
2022-09-03T23:54:10.318Z,54.74
2022-09-03T23:56:53.973Z,59.26
2022-09-03T23:59:36.250Z,56.57
